Time;durP1;ratioP1;P1;durP2;ratioP2;P2;SDS_P1;SDS_P2;PMS_P1;PMS_P2;Temp;Humidity;BMP_temperature;BMP_pressure;BME280_temperature;BME280_humidity;BME280_pressure;Samples;Min_cycle;Max_cycle;Signal;HPM_P1;HPM_P2
2021/10/31 00:01:05;;;;;;;13.00;11.87;;;11.70;99.90;;;;;;5011456;28;20516;-66
2021/10/31 00:03:32;;;;;;;10.60;9.37;;;11.60;99.90;;;;;;5011401;28;20446;-67
2021/10/31 00:05:59;;;;;;;10.13;9.43;;;11.70;99.90;;;;;;5016916;28;20473;-68
2021/10/31 00:08:26;;;;;;;10.37;9.40;;;11.60;99.90;;;;;;5032301;28;20449;-67
2021/10/31 00:10:52;;;;;;;10.27;9.40;;;11.70;99.90;;;;;;5034950;28;21061;-68
2021/10/31 00:13:19;;;;;;;10.07;9.10;;;11.60;99.90;;;;;;5034735;28;20448;-67
2021/10/31 00:15:46;;;;;;;10.00;9.20;;;11.60;99.90;;;;;;5034753;28;20836;-67
2021/10/31 00:18:14;;;;;;;9.63;8.80;;;11.60;99.90;;;;;;5026334;28;20442;-68
2021/10/31 00:20:41;;;;;;;7.83;7.30;;;11.60;99.90;;;;;;5014813;28;20442;-67
2021/10/31 00:23:07;;;;;;;8.87;8.17;;;11.60;99.90;;;;;;5014787;28;20456;-67
2021/10/31 00:25:34;;;;;;;9.93;8.93;;;11.60;99.90;;;;;;5042315;22;20447;-61
2021/10/31 00:28:01;;;;;;;10.30;9.27;;;11.60;99.90;;;;;;5037431;28;20433;-60
2021/10/31 00:30:28;;;;;;;8.80;8.17;;;11.60;99.90;;;;;;5046607;28;20510;-62
2021/10/31 00:32:54;;;;;;;11.10;8.77;;;11.60;99.90;;;;;;5061219;28;20440;-62
2021/10/31 00:35:23;;;;;;;8.93;8.23;;;11.60;99.90;;;;;;5042594;28;20464;-61
2021/10/31 00:37:49;;;;;;;9.13;8.43;;;11.60;99.90;;;;;;5041417;28;20448;-62
2021/10/31 00:40:16;;;;;;;8.10;7.50;;;11.60;99.90;;;;;;5041286;28;20448;-62
2021/10/31 00:42:43;;;;;;;8.63;7.80;;;11.60;99.90;;;;;;5048747;28;20448;-62
2021/10/31 00:45:10;;;;;;;8.33;7.83;;;11.60;99.90;;;;;;5060365;28;20448;-62
2021/10/31 00:47:36;;;;;;;10.63;8.20;;;11.60;99.90;;;;;;5058880;28;20468;-62
2021/10/31 00:50:04;;;;;;;8.47;7.87;;;11.50;99.90;;;;;;5058692;28;20476;-62
2021/10/31 00:52:32;;;;;;;9.00;8.20;;;11.50;99.90;;;;;;5040012;28;20449;-62
2021/10/31 00:54:59;;;;;;;8.13;7.40;;;11.50;99.90;;;;;;5039427;28;20448;-62
2021/10/31 00:57:27;;;;;;;9.57;8.67;;;11.50;99.90;;;;;;5040854;28;20469;-62
2021/10/31 00:59:54;;;;;;;9.67;8.17;;;11.50;99.90;;;;;;5039866;28;20448;-62
2021/10/31 01:02:21;;;;;;;9.20;8.30;;;11.50;99.90;;;;;;5051585;28;20447;-62
2021/10/31 01:04:52;;;;;;;10.03;9.03;;;11.50;99.90;;;;;;5059700;28;20447;-62
2021/10/31 01:07:33;;;;;;;9.27;8.60;;;11.50;99.90;;;;;;5061523;28;20816;-61
2021/10/31 01:10:14;;;;;;;9.30;8.60;;;11.50;99.90;;;;;;5062124;28;20488;-62
2021/10/31 01:13:02;;;;;;;8.80;8.10;;;11.50;99.90;;;;;;5059652;28;20455;-62
2021/10/31 01:15:36;;;;;;;8.47;7.43;;;11.50;99.90;;;;;;5041427;28;20449;-62
2021/10/31 01:18:24;;;;;;;7.47;6.97;;;11.50;99.90;;;;;;5041421;28;20459;-62
2021/10/31 01:21:03;;;;;;;7.47;7.10;;;11.40;99.90;;;;;;5042173;28;20445;-62
2021/10/31 01:23:44;;;;;;;10.73;7.80;;;11.40;99.90;;;;;;5042795;28;20441;-62
2021/10/31 01:26:28;;;;;;;9.47;8.70;;;11.40;99.90;;;;;;5050398;28;20483;-62
2021/10/31 01:29:20;;;;;;;7.13;6.67;;;11.40;99.90;;;;;;5060569;28;20432;-62
2021/10/31 01:32:07;;;;;;;6.80;6.40;;;11.30;99.90;;;;;;5060344;28;20437;-62
2021/10/31 01:34:45;;;;;;;9.43;6.30;;;11.30;99.90;;;;;;5060001;28;20522;-62
2021/10/31 01:37:24;;;;;;;8.80;8.20;;;11.30;99.90;;;;;;5056750;28;20509;-62
2021/10/31 01:39:57;;;;;;;9.80;7.17;;;11.20;99.90;;;;;;5038615;28;20456;-61
2021/10/31 01:42:34;;;;;;;8.93;8.07;;;11.20;99.90;;;;;;5038715;28;20913;-61
2021/10/31 01:45:05;;;;;;;9.70;7.30;;;11.20;99.90;;;;;;5038241;28;20456;-62
2021/10/31 01:47:42;;;;;;;10.57;8.40;;;11.20;99.90;;;;;;5038124;28;20834;-62
2021/10/31 01:50:14;;;;;;;10.50;9.50;;;11.10;99.90;;;;;;5049051;28;20479;-62
2021/10/31 01:52:49;;;;;;;8.93;8.20;;;11.10;99.90;;;;;;5058771;28;20515;-62
2021/10/31 01:55:22;;;;;;;9.90;9.23;;;11.00;99.90;;;;;;5058632;28;20501;-62
2021/10/31 01:57:56;;;;;;;10.70;9.77;;;11.00;99.90;;;;;;5058968;28;20436;-62
2021/10/31 02:00:24;;;;;;;9.80;8.80;;;10.90;99.90;;;;;;5058044;28;20435;-62
2021/10/31 02:02:51;;;;;;;9.53;8.50;;;10.90;99.90;;;;;;5057173;28;20814;-62
2021/10/31 02:05:21;;;;;;;12.00;9.60;;;10.90;99.90;;;;;;5056776;28;20751;-62
2021/10/31 02:07:52;;;;;;;11.57;10.37;;;10.80;99.90;;;;;;5056389;28;20441;-62
2021/10/31 02:10:20;;;;;;;9.60;8.80;;;10.80;99.90;;;;;;5056268;28;20562;-61
2021/10/31 02:12:48;;;;;;;9.20;8.40;;;10.80;99.90;;;;;;5056653;28;20455;-61
2021/10/31 02:15:17;;;;;;;10.60;9.37;;;10.70;99.90;;;;;;5037901;28;20950;-61
2021/10/31 02:17:45;;;;;;;11.37;10.37;;;10.70;99.90;;;;;;5036250;28;20468;-62
2021/10/31 02:20:12;;;;;;;10.00;9.00;;;10.60;99.90;;;;;;5036386;28;20498;-62
2021/10/31 02:22:41;;;;;;;10.00;9.20;;;10.60;99.90;;;;;;5037749;28;20471;-62
2021/10/31 02:25:10;;;;;;;10.67;9.47;;;10.60;99.90;;;;;;5038068;28;20456;-60
2021/10/31 02:27:41;;;;;;;9.23;8.47;;;10.50;99.90;;;;;;5056589;28;20476;-62
2021/10/31 02:30:10;;;;;;;10.33;9.43;;;10.60;99.90;;;;;;5058659;28;21014;-62
2021/10/31 02:32:37;;;;;;;8.80;8.20;;;10.50;99.90;;;;;;5058374;28;20454;-62
2021/10/31 02:35:08;;;;;;;9.73;8.83;;;10.50;99.90;;;;;;5059457;28;20444;-62
2021/10/31 02:37:35;;;;;;;10.33;9.33;;;10.50;99.90;;;;;;5055923;28;20476;-62
2021/10/31 02:40:02;;;;;;;11.80;8.80;;;10.50;99.90;;;;;;5039622;28;20445;-62
2021/10/31 02:42:30;;;;;;;10.20;9.17;;;10.50;99.90;;;;;;5041188;28;20445;-61
2021/10/31 02:44:57;;;;;;;9.60;8.70;;;10.50;99.90;;;;;;5036010;28;20460;-62
2021/10/31 02:47:27;;;;;;;10.17;9.27;;;10.40;99.90;;;;;;5035413;28;20476;-61
2021/10/31 02:49:56;;;;;;;12.90;10.47;;;10.40;99.90;;;;;;5039215;28;20448;-62
2021/10/31 02:52:29;;;;;;;11.40;8.30;;;10.40;99.90;;;;;;5053099;28;20808;-62
2021/10/31 02:55:03;;;;;;;9.37;8.27;;;10.40;99.90;;;;;;5053394;28;20444;-60
2021/10/31 02:57:40;;;;;;;10.27;9.07;;;10.40;99.90;;;;;;5054115;28;20464;-60
2021/10/31 03:00:11;;;;;;;10.17;9.07;;;10.40;99.90;;;;;;5056359;28;20444;-59
2021/10/31 03:02:38;;;;;;;9.70;8.90;;;10.40;99.90;;;;;;5045480;28;20456;-62
2021/10/31 03:05:05;;;;;;;10.83;8.77;;;10.30;99.90;;;;;;5037078;28;20452;-61
2021/10/31 03:07:32;;;;;;;9.13;7.97;;;10.30;99.90;;;;;;5036279;28;20468;-62
2021/10/31 03:09:58;;;;;;;9.03;8.23;;;10.30;99.90;;;;;;5035979;28;20453;-61
2021/10/31 03:12:25;;;;;;;8.87;8.27;;;10.30;99.90;;;;;;5036630;28;20453;-61
2021/10/31 03:14:53;;;;;;;8.47;7.77;;;10.30;99.90;;;;;;5050662;28;20453;-62
2021/10/31 03:17:20;;;;;;;10.63;9.53;;;10.30;99.90;;;;;;5060844;28;20530;-62
2021/10/31 03:19:46;;;;;;;13.70;10.50;;;10.30;99.90;;;;;;5061722;28;20436;-62
2021/10/31 03:22:14;;;;;;;10.00;7.90;;;10.30;99.90;;;;;;5057154;28;20440;-62
2021/10/31 03:24:40;;;;;;;11.17;8.53;;;10.30;99.90;;;;;;5052390;28;20445;-62
2021/10/31 03:27:07;;;;;;;8.93;7.90;;;10.40;99.90;;;;;;5050610;28;20480;-62
2021/10/31 03:29:34;;;;;;;13.03;8.40;;;10.40;99.90;;;;;;5051100;28;20452;-62
2021/10/31 03:32:02;;;;;;;10.17;9.27;;;10.40;99.90;;;;;;5051293;28;20483;-62
2021/10/31 03:34:29;;;;;;;11.03;9.87;;;10.40;99.90;;;;;;5051290;28;20440;-62
2021/10/31 03:36:56;;;;;;;11.07;8.70;;;10.50;99.90;;;;;;5051220;28;20525;-62
2021/10/31 03:39:22;;;;;;;11.23;9.67;;;10.50;99.90;;;;;;5050564;28;20447;-62
2021/10/31 03:41:49;;;;;;;13.30;9.00;;;10.50;99.90;;;;;;5051837;28;20441;-62
2021/10/31 03:44:19;;;;;;;10.93;9.10;;;10.50;99.90;;;;;;5055387;28;20499;-62
2021/10/31 03:46:46;;;;;;;9.50;8.80;;;10.50;99.90;;;;;;5055188;28;20464;-63
2021/10/31 03:49:15;;;;;;;9.07;8.13;;;10.50;99.90;;;;;;5050919;28;20448;-63
2021/10/31 03:51:42;;;;;;;12.10;10.07;;;10.60;99.90;;;;;;5035187;28;21044;-62
2021/10/31 03:54:09;;;;;;;9.83;8.80;;;10.60;99.90;;;;;;5035254;28;20449;-62
2021/10/31 03:56:36;;;;;;;9.57;8.67;;;10.60;99.90;;;;;;5034982;28;20472;-62
2021/10/31 03:59:02;;;;;;;11.83;8.73;;;10.60;99.90;;;;;;5034929;28;20449;-62
2021/10/31 04:01:31;;;;;;;11.73;8.97;;;10.60;99.90;;;;;;5035131;28;20927;-62
2021/10/31 04:03:58;;;;;;;9.17;8.10;;;10.60;99.90;;;;;;5035025;28;20816;-62
2021/10/31 04:06:26;;;;;;;10.13;9.27;;;10.60;99.90;;;;;;5034935;28;20464;-62
2021/10/31 04:08:53;;;;;;;10.10;9.30;;;10.60;99.90;;;;;;5034863;28;20444;-62
2021/10/31 04:11:20;;;;;;;9.27;8.57;;;10.70;99.90;;;;;;5034861;28;21001;-62
2021/10/31 04:13:46;;;;;;;10.97;9.20;;;10.70;99.90;;;;;;5035091;28;20449;-62
2021/10/31 04:16:13;;;;;;;9.57;8.57;;;10.70;99.90;;;;;;5052269;28;20471;-63
2021/10/31 04:18:40;;;;;;;9.17;8.27;;;10.70;99.90;;;;;;5054431;28;20452;-62
2021/10/31 04:21:06;;;;;;;8.50;7.63;;;10.70;99.90;;;;;;5054664;28;20854;-62
2021/10/31 04:23:34;;;;;;;10.20;9.20;;;10.70;99.90;;;;;;5054713;28;20444;-62
2021/10/31 04:26:01;;;;;;;9.67;8.87;;;10.70;99.90;;;;;;5047389;28;20477;-62
2021/10/31 04:28:28;;;;;;;10.57;8.73;;;10.80;99.90;;;;;;5034438;28;20451;-62
2021/10/31 04:30:54;;;;;;;9.83;8.77;;;10.70;99.90;;;;;;5034449;28;20480;-62
2021/10/31 04:33:21;;;;;;;15.30;10.60;;;10.70;99.90;;;;;;5034521;28;20814;-62
2021/10/31 04:35:48;;;;;;;10.97;9.77;;;10.70;99.90;;;;;;5034259;28;20465;-62
2021/10/31 04:38:18;;;;;;;11.70;9.50;;;10.70;99.90;;;;;;5039851;28;20806;-62
2021/10/31 04:40:46;;;;;;;12.13;10.83;;;10.70;99.90;;;;;;5054265;28;20502;-62
2021/10/31 04:43:13;;;;;;;11.93;10.83;;;10.70;99.90;;;;;;5053065;28;20880;-61
2021/10/31 04:45:41;;;;;;;10.40;9.50;;;10.70;99.90;;;;;;5034147;28;20457;-62
2021/10/31 04:48:08;;;;;;;13.97;12.47;;;10.70;99.90;;;;;;5034063;28;20445;-62
2021/10/31 04:50:36;;;;;;;13.17;10.53;;;10.70;99.90;;;;;;5034296;28;20935;-62
2021/10/31 04:53:06;;;;;;;16.23;10.63;;;10.70;99.90;;;;;;5034034;28;20443;-62
2021/10/31 04:55:33;;;;;;;12.70;11.30;;;10.70;99.90;;;;;;5033554;28;20444;-62
2021/10/31 04:58:01;;;;;;;12.60;10.40;;;10.70;99.90;;;;;;5034002;28;20441;-62
2021/10/31 05:00:28;;;;;;;16.30;12.43;;;10.70;99.90;;;;;;5033832;28;20452;-62
2021/10/31 05:02:55;;;;;;;13.93;12.53;;;10.70;99.90;;;;;;5033874;28;20453;-62
2021/10/31 05:05:22;;;;;;;16.47;12.80;;;10.70;99.90;;;;;;5034181;28;20445;-62
2021/10/31 05:07:49;;;;;;;12.80;11.37;;;10.70;99.90;;;;;;5033760;28;20876;-62
2021/10/31 05:10:16;;;;;;;14.63;13.23;;;10.60;99.90;;;;;;5033795;28;20491;-62
2021/10/31 05:12:43;;;;;;;18.27;13.13;;;10.70;99.90;;;;;;5033829;28;20481;-62
2021/10/31 05:15:11;;;;;;;13.53;12.10;;;10.70;99.90;;;;;;5034099;28;20477;-63
2021/10/31 05:17:38;;;;;;;19.60;13.17;;;10.70;99.90;;;;;;5033540;28;20464;-62
2021/10/31 05:20:06;;;;;;;14.23;12.83;;;10.70;99.90;;;;;;5045443;28;20448;-62
2021/10/31 05:22:33;;;;;;;20.23;14.07;;;10.60;99.90;;;;;;5053544;28;20436;-62
2021/10/31 05:25:00;;;;;;;17.63;13.10;;;10.60;99.90;;;;;;5053332;28;20440;-62
2021/10/31 05:27:27;;;;;;;15.20;13.70;;;10.60;99.90;;;;;;5051369;28;20483;-63
2021/10/31 05:29:53;;;;;;;16.40;12.70;;;10.60;99.90;;;;;;5053195;28;20440;-62
2021/10/31 05:32:21;;;;;;;16.83;13.67;;;10.60;99.90;;;;;;5053281;28;20884;-62
2021/10/31 05:34:49;;;;;;;17.07;13.33;;;10.60;99.90;;;;;;5053330;28;20445;-63
2021/10/31 05:37:16;;;;;;;17.60;13.40;;;10.60;99.90;;;;;;5053140;28;20468;-62
2021/10/31 05:39:43;;;;;;;20.23;14.50;;;10.60;99.90;;;;;;5036273;28;20445;-62
2021/10/31 05:42:10;;;;;;;15.13;12.97;;;10.60;99.90;;;;;;5033261;28;21050;-63
2021/10/31 05:44:37;;;;;;;16.03;13.60;;;10.60;99.90;;;;;;5032952;28;20437;-63
2021/10/31 05:47:04;;;;;;;15.27;13.70;;;10.60;99.90;;;;;;5032986;28;20978;-63
2021/10/31 05:49:33;;;;;;;17.00;13.43;;;10.60;99.90;;;;;;5033006;28;20448;-63
2021/10/31 05:52:00;;;;;;;17.33;14.47;;;10.60;99.90;;;;;;5032978;28;21013;-62
2021/10/31 05:54:26;;;;;;;16.03;13.93;;;10.60;99.90;;;;;;5033044;28;20456;-63
2021/10/31 05:56:53;;;;;;;14.97;13.47;;;10.60;99.90;;;;;;5032780;28;20472;-63
2021/10/31 05:59:20;;;;;;;19.73;12.33;;;10.60;99.90;;;;;;5032806;28;20577;-63
2021/10/31 06:01:46;;;;;;;17.40;12.97;;;10.60;99.90;;;;;;5032991;28;20445;-63
2021/10/31 06:04:13;;;;;;;15.47;13.87;;;10.60;99.90;;;;;;5052508;28;20810;-63
2021/10/31 06:06:41;;;;;;;14.93;13.43;;;10.60;99.90;;;;;;5052552;28;20471;-62
2021/10/31 06:09:08;;;;;;;17.20;12.23;;;10.60;99.90;;;;;;5052486;28;20440;-63
2021/10/31 06:11:35;;;;;;;15.13;12.60;;;10.60;99.90;;;;;;5052576;28;20850;-63
2021/10/31 06:14:01;;;;;;;16.60;12.83;;;10.60;99.90;;;;;;5052230;28;20451;-64
2021/10/31 06:16:28;;;;;;;15.77;13.27;;;10.60;99.90;;;;;;5012716;28;20583;-63
2021/10/31 06:18:55;;;;;;;13.40;12.17;;;10.60;99.90;;;;;;5035907;28;20451;-63
2021/10/31 06:21:22;;;;;;;14.70;13.20;;;10.60;99.90;;;;;;5052479;28;20829;-63
2021/10/31 06:23:50;;;;;;;14.33;12.70;;;10.60;99.90;;;;;;5052233;28;20475;-63
2021/10/31 06:26:17;;;;;;;14.43;12.90;;;10.60;99.90;;;;;;5052473;28;20475;-62
2021/10/31 06:28:43;;;;;;;13.63;12.33;;;10.60;99.90;;;;;;5037884;28;20453;-63
2021/10/31 06:31:10;;;;;;;13.60;12.30;;;10.60;99.90;;;;;;5040091;28;20452;-63
2021/10/31 06:33:37;;;;;;;13.73;12.37;;;10.60;99.90;;;;;;5039915;28;20448;-63
2021/10/31 06:36:03;;;;;;;14.27;12.90;;;10.70;99.90;;;;;;5040726;28;20472;-63
2021/10/31 06:38:30;;;;;;;18.27;12.70;;;10.70;99.90;;;;;;5043764;28;20450;-64
2021/10/31 06:40:58;;;;;;;15.00;13.57;;;10.60;99.90;;;;;;5062426;28;20450;-63
2021/10/31 06:43:25;;;;;;;13.93;12.40;;;10.60;99.90;;;;;;5065514;28;20444;-63
2021/10/31 06:45:52;;;;;;;13.23;11.60;;;10.60;99.90;;;;;;5056245;28;20472;-63
2021/10/31 06:48:19;;;;;;;12.30;10.83;;;10.60;99.90;;;;;;5041899;28;20449;-63
2021/10/31 06:50:45;;;;;;;13.10;11.97;;;10.60;99.90;;;;;;5035929;28;20456;-63
2021/10/31 06:53:12;;;;;;;13.73;12.40;;;10.60;99.90;;;;;;5036246;28;20485;-63
2021/10/31 06:55:39;;;;;;;14.23;12.73;;;10.60;99.90;;;;;;5042247;28;20460;-62
2021/10/31 06:58:07;;;;;;;11.70;10.60;;;10.70;99.90;;;;;;5044697;28;20988;-62
2021/10/31 07:00:33;;;;;;;12.30;10.97;;;10.70;99.90;;;;;;5037531;28;20471;-63
2021/10/31 07:03:00;;;;;;;13.53;11.10;;;10.70;99.90;;;;;;5037542;28;20444;-63
2021/10/31 07:05:27;;;;;;;12.60;11.30;;;10.70;99.90;;;;;;5042568;28;20436;-63
2021/10/31 07:07:53;;;;;;;12.47;11.37;;;10.80;99.90;;;;;;5060253;28;20460;-63
2021/10/31 07:10:20;;;;;;;10.17;9.07;;;10.90;99.90;;;;;;5058853;28;20440;-63
2021/10/31 07:12:47;;;;;;;12.47;11.07;;;10.90;99.90;;;;;;5057526;28;20487;-63
2021/10/31 07:15:15;;;;;;;11.70;10.70;;;11.00;99.90;;;;;;5058138;28;20506;-62
2021/10/31 07:17:42;;;;;;;11.10;10.13;;;11.00;99.90;;;;;;5048406;28;20449;-63
2021/10/31 07:20:13;;;;;;;11.03;10.03;;;11.10;99.90;;;;;;5036078;28;20457;-63
2021/10/31 07:22:40;;;;;;;10.43;9.53;;;11.10;99.90;;;;;;5017663;28;20449;-63
2021/10/31 07:25:10;;;;;;;11.90;10.10;;;11.20;99.90;;;;;;5016965;28;20449;-63
2021/10/31 07:27:37;;;;;;;9.30;8.70;;;11.20;99.90;;;;;;5016175;28;20477;-63
2021/10/31 07:30:05;;;;;;;10.63;9.60;;;11.30;99.90;;;;;;5031829;28;20451;-61
2021/10/31 07:32:33;;;;;;;10.97;9.90;;;11.30;99.90;;;;;;5055420;28;20488;-63
2021/10/31 07:35:00;;;;;;;10.00;9.00;;;11.30;99.90;;;;;;5056078;28;20444;-63
2021/10/31 07:37:29;;;;;;;9.30;8.50;;;11.30;99.90;;;;;;5054303;28;20464;-63
2021/10/31 07:39:57;;;;;;;9.30;8.70;;;11.40;99.90;;;;;;5054345;28;20554;-63
2021/10/31 07:42:28;;;;;;;10.20;9.47;;;11.40;99.90;;;;;;5043857;28;20524;-63
2021/10/31 07:44:55;;;;;;;9.20;8.70;;;11.40;99.90;;;;;;5034748;28;20449;-61
2021/10/31 07:47:21;;;;;;;10.47;9.77;;;11.40;99.90;;;;;;5034446;28;20480;-61
2021/10/31 07:49:50;;;;;;;9.80;9.10;;;11.50;99.90;;;;;;5035451;28;20851;-63
2021/10/31 07:52:17;;;;;;;10.13;9.53;;;11.50;99.90;;;;;;5035206;28;20491;-62
2021/10/31 07:54:44;;;;;;;9.77;9.10;;;11.50;99.90;;;;;;5047715;28;20804;-62
2021/10/31 07:57:11;;;;;;;9.90;9.10;;;11.50;99.90;;;;;;5054596;28;20471;-62
2021/10/31 07:59:38;;;;;;;10.30;9.63;;;11.50;99.90;;;;;;5054972;28;20455;-63
2021/10/31 08:02:05;;;;;;;9.20;8.70;;;11.60;99.90;;;;;;5055574;28;20452;-61
2021/10/31 08:04:32;;;;;;;8.97;8.47;;;11.70;99.90;;;;;;5056143;28;20560;-62
2021/10/31 08:07:00;;;;;;;9.80;9.10;;;11.70;99.90;;;;;;5039899;28;20465;-63
2021/10/31 08:09:27;;;;;;;9.97;9.27;;;11.80;99.90;;;;;;5036863;28;20456;-62
2021/10/31 08:11:54;;;;;;;10.60;9.80;;;11.90;99.90;;;;;;5036661;28;20485;-63
2021/10/31 08:14:21;;;;;;;10.97;10.17;;;11.90;99.90;;;;;;5035501;28;20449;-63
2021/10/31 08:16:47;;;;;;;10.90;10.20;;;12.00;99.90;;;;;;5046464;28;20471;-62
2021/10/31 08:19:14;;;;;;;10.03;9.53;;;12.10;99.90;;;;;;5053316;28;20459;-63
2021/10/31 08:21:41;;;;;;;10.73;10.13;;;12.20;99.90;;;;;;5053110;28;20451;-62
2021/10/31 08:24:10;;;;;;;13.03;9.80;;;12.30;99.90;;;;;;5053354;28;20813;-63
2021/10/31 08:26:36;;;;;;;10.67;10.07;;;12.40;99.90;;;;;;5052183;28;21004;-63
2021/10/31 08:29:06;;;;;;;11.30;10.70;;;12.50;99.90;;;;;;5037184;28;20445;-63
2021/10/31 08:31:36;;;;;;;11.07;10.57;;;12.70;99.90;;;;;;5036996;28;20455;-63
2021/10/31 08:34:02;;;;;;;11.57;10.97;;;12.80;99.90;;;;;;5035860;28;20475;-63
2021/10/31 08:36:31;;;;;;;12.37;11.67;;;12.90;99.90;;;;;;5037304;28;20494;-63
2021/10/31 08:38:58;;;;;;;13.00;12.00;;;13.10;99.90;;;;;;5038977;28;20449;-64
2021/10/31 08:41:28;;;;;;;12.33;11.73;;;13.20;99.90;;;;;;5055016;28;20937;-63
2021/10/31 08:43:58;;;;;;;11.80;11.27;;;13.30;99.90;;;;;;5054508;28;20820;-64
2021/10/31 08:46:26;;;;;;;12.73;11.90;;;13.50;99.90;;;;;;5052191;28;20480;-65
2021/10/31 08:48:53;;;;;;;13.50;12.70;;;13.60;99.90;;;;;;5034059;28;20452;-65
2021/10/31 08:51:22;;;;;;;15.40;14.40;;;13.70;99.90;;;;;;5034352;28;20484;-66
2021/10/31 08:53:49;;;;;;;14.17;13.10;;;13.90;99.90;;;;;;5034015;28;20520;-64
2021/10/31 08:56:16;;;;;;;12.90;12.40;;;14.00;99.90;;;;;;5034920;28;20468;-66
2021/10/31 08:58:45;;;;;;;14.90;14.20;;;14.20;99.90;;;;;;5054030;28;20447;-66
2021/10/31 09:01:12;;;;;;;13.80;13.20;;;14.40;99.90;;;;;;5054412;28;20448;-66
2021/10/31 09:03:40;;;;;;;14.60;14.00;;;14.60;99.90;;;;;;5054292;28;20448;-65
2021/10/31 09:06:07;;;;;;;14.27;13.57;;;14.60;99.90;;;;;;5053767;28;20803;-65
2021/10/31 09:08:34;;;;;;;14.70;14.10;;;14.80;99.90;;;;;;5051993;28;20444;-65
2021/10/31 09:11:00;;;;;;;14.80;14.20;;;15.00;99.90;;;;;;5033897;28;20448;-65
2021/10/31 09:13:27;;;;;;;14.30;13.80;;;15.10;99.90;;;;;;5033831;28;20480;-66
2021/10/31 09:15:55;;;;;;;15.30;14.60;;;15.20;99.90;;;;;;5033772;28;20468;-64
2021/10/31 09:18:23;;;;;;;15.33;14.63;;;15.30;99.90;;;;;;5033429;28;20448;-65
2021/10/31 09:20:50;;;;;;;15.47;14.77;;;15.50;99.90;;;;;;5034662;28;20970;-65
2021/10/31 09:23:16;;;;;;;15.03;14.43;;;15.50;99.90;;;;;;5053633;28;20447;-65
2021/10/31 09:25:43;;;;;;;15.30;14.70;;;15.50;99.90;;;;;;5053479;28;21005;-66
2021/10/31 09:28:10;;;;;;;16.80;16.10;;;15.30;99.90;;;;;;5053548;28;20651;-65
2021/10/31 09:30:39;;;;;;;16.17;15.50;;;15.30;99.90;;;;;;5053803;28;20444;-64
2021/10/31 09:33:10;;;;;;;16.33;15.43;;;15.40;99.90;;;;;;5049089;28;21056;-65
2021/10/31 09:35:43;;;;;;;15.17;14.57;;;15.50;99.90;;;;;;5033874;28;20469;-64
2021/10/31 09:38:10;;;;;;;15.30;14.60;;;15.60;99.90;;;;;;5033640;28;20491;-65
2021/10/31 09:40:37;;;;;;;16.00;15.30;;;15.70;99.90;;;;;;5035237;28;20437;-65
2021/10/31 09:43:05;;;;;;;13.97;13.47;;;15.90;99.90;;;;;;5042417;28;20447;-65
2021/10/31 09:45:33;;;;;;;14.30;13.80;;;16.10;99.90;;;;;;5054401;28;20966;-65
2021/10/31 09:48:01;;;;;;;14.80;14.10;;;16.30;99.90;;;;;;5054045;28;20445;-65
2021/10/31 09:50:33;;;;;;;14.73;14.13;;;16.50;99.90;;;;;;5052790;28;20444;-65
2021/10/31 09:53:01;;;;;;;14.30;13.80;;;16.60;99.90;;;;;;5014186;28;20492;-65
2021/10/31 09:55:28;;;;;;;14.20;13.80;;;16.80;99.90;;;;;;5013758;28;21001;-66
2021/10/31 09:57:55;;;;;;;17.97;16.30;;;16.80;99.90;;;;;;5013150;28;20930;-64
2021/10/31 10:00:34;;;;;;;14.57;14.07;;;16.80;99.90;;;;;;5013532;28;20446;-65
2021/10/31 10:03:08;;;;;;;15.60;15.00;;;16.90;99.90;;;;;;5026314;28;20440;-66
2021/10/31 10:05:36;;;;;;;15.60;14.90;;;17.00;99.90;;;;;;5054005;28;20542;-66
2021/10/31 10:08:11;;;;;;;14.57;14.07;;;16.90;99.90;;;;;;5053703;28;20929;-66
2021/10/31 10:10:46;;;;;;;15.00;14.33;;;17.00;99.90;;;;;;5053290;28;20947;-65
2021/10/31 10:13:18;;;;;;;14.83;14.27;;;17.20;99.90;;;;;;5053015;28;20482;-65
2021/10/31 10:15:46;;;;;;;15.50;14.80;;;17.20;99.90;;;;;;5033944;28;20479;-65
2021/10/31 10:18:28;;;;;;;15.10;14.50;;;17.40;99.90;;;;;;5021861;28;20448;-66
2021/10/31 10:20:57;;;;;;;16.00;15.20;;;17.20;99.90;;;;;;5023054;28;20928;-66
2021/10/31 10:23:23;;;;;;;15.60;15.00;;;17.30;99.90;;;;;;5021857;28;20965;-65
2021/10/31 10:25:52;;;;;;;16.27;15.57;;;17.20;99.90;;;;;;5022511;28;20477;-66
2021/10/31 10:28:26;;;;;;;15.53;14.93;;;17.30;99.90;;;;;;5039530;28;20452;-66
2021/10/31 10:30:55;;;;;;;15.83;15.23;;;17.30;99.90;;;;;;5042427;28;20457;-65
2021/10/31 10:33:22;;;;;;;16.73;16.03;;;17.40;99.90;;;;;;5042495;28;20853;-66
2021/10/31 10:35:55;;;;;;;16.63;16.03;;;17.70;99.90;;;;;;5042250;28;20471;-63
2021/10/31 10:38:23;;;;;;;18.10;17.30;;;17.90;99.90;;;;;;5039902;28;20455;-64
2021/10/31 10:40:50;;;;;;;17.60;16.70;;;17.90;99.90;;;;;;5022587;28;20445;-65
2021/10/31 10:43:17;;;;;;;16.70;16.00;;;17.90;99.90;;;;;;5022257;28;20448;-66
2021/10/31 10:45:43;;;;;;;16.50;15.90;;;18.20;99.90;;;;;;5028882;28;20476;-64
2021/10/31 10:48:15;;;;;;;17.83;17.13;;;18.20;99.90;;;;;;5043845;28;20454;-67
2021/10/31 10:50:44;;;;;;;17.80;17.10;;;18.20;99.90;;;;;;5049571;28;20448;-65
2021/10/31 10:53:14;;;;;;;17.10;16.50;;;18.30;99.90;;;;;;5047630;28;20484;-66
2021/10/31 10:55:44;;;;;;;17.50;16.80;;;18.30;99.90;;;;;;5047271;28;20464;-67
2021/10/31 10:58:13;;;;;;;17.07;16.47;;;18.10;99.90;;;;;;5030210;28;20456;-67
2021/10/31 11:00:42;;;;;;;17.20;16.40;;;18.10;99.90;;;;;;5027510;28;20460;-64
2021/10/31 11:03:13;;;;;;;17.47;16.77;;;18.30;99.90;;;;;;5027196;28;20566;-66
2021/10/31 11:05:42;;;;;;;17.40;16.60;;;18.70;99.90;;;;;;5023628;28;20468;-65
2021/10/31 11:08:10;;;;;;;18.03;17.33;;;18.70;99.90;;;;;;5022834;28;20527;-65
2021/10/31 11:10:46;;;;;;;16.60;16.00;;;18.80;99.90;;;;;;5024861;28;20445;-65
2021/10/31 11:13:13;;;;;;;17.77;16.80;;;18.70;99.90;;;;;;5022930;28;20488;-63
2021/10/31 11:15:40;;;;;;;16.80;16.20;;;18.70;99.90;;;;;;5022645;28;20469;-64
2021/10/31 11:18:10;;;;;;;16.77;15.87;;;18.80;99.90;;;;;;5022820;28;20456;-63
2021/10/31 11:20:39;;;;;;;17.10;16.30;;;18.80;99.90;;;;;;5024587;28;20828;-68
2021/10/31 11:23:08;;;;;;;16.73;16.13;;;18.60;99.90;;;;;;5023498;28;20445;-68
2021/10/31 11:25:36;;;;;;;18.17;17.27;;;18.40;99.90;;;;;;5023753;28;20438;-67
2021/10/31 11:28:08;;;;;;;17.83;17.07;;;18.30;99.90;;;;;;5022921;28;20449;-66
2021/10/31 11:30:36;;;;;;;16.37;15.70;;;18.50;99.90;;;;;;5022849;28;20453;-67
2021/10/31 11:33:05;;;;;;;16.00;15.40;;;18.70;99.90;;;;;;5023954;28;21028;-67
2021/10/31 11:35:32;;;;;;;16.23;15.63;;;18.90;99.90;;;;;;5023425;28;20464;-67
2021/10/31 11:38:03;;;;;;;16.63;15.90;;;19.50;99.90;;;;;;5022537;28;20459;-67
2021/10/31 11:40:32;;;;;;;17.63;16.50;;;19.30;99.90;;;;;;5023944;28;20819;-65
2021/10/31 11:43:00;;;;;;;16.60;15.93;;;20.20;99.90;;;;;;5024594;28;20480;-65
2021/10/31 11:45:33;;;;;;;17.40;16.60;;;20.60;99.90;;;;;;5025064;28;20453;-65
2021/10/31 11:48:12;;;;;;;19.37;18.57;;;21.80;99.90;;;;;;5027367;28;20448;-64
2021/10/31 11:50:40;;;;;;;17.80;17.20;;;21.60;99.90;;;;;;5027343;28;20491;-64
2021/10/31 11:53:15;;;;;;;18.13;17.43;;;21.60;99.90;;;;;;5027633;28;20523;-62
2021/10/31 11:55:49;;;;;;;18.20;17.30;;;21.50;99.90;;;;;;5031706;28;20996;-64
2021/10/31 11:58:51;;;;;;;18.10;17.40;;;21.30;99.90;;;;;;5031613;28;20921;-64
2021/10/31 12:01:38;;;;;;;17.50;16.80;;;20.80;99.90;;;;;;5032411;28;20460;-62
2021/10/31 12:04:07;;;;;;;17.53;16.93;;;20.80;99.90;;;;;;5054651;28;20440;-63
2021/10/31 12:06:51;;;;;;;18.20;17.50;;;20.90;99.90;;;;;;5046744;28;20495;-65
2021/10/31 12:09:31;;;;;;;18.93;18.20;;;20.70;99.90;;;;;;5055360;28;20452;-63
2021/10/31 12:12:21;;;;;;;17.90;17.10;;;20.50;99.90;;;;;;5047424;28;20467;-63
2021/10/31 12:14:59;;;;;;;18.10;17.40;;;20.30;99.90;;;;;;5052151;28;20949;-64
2021/10/31 12:17:43;;;;;;;18.10;17.40;;;20.00;99.90;;;;;;5042966;28;20464;-65
2021/10/31 12:20:10;;;;;;;18.27;17.50;;;19.90;99.90;;;;;;5029551;28;21033;-62
2021/10/31 12:22:37;;;;;;;18.80;18.10;;;20.10;99.90;;;;;;5030794;28;20457;-62
2021/10/31 12:25:08;;;;;;;17.87;17.23;;;19.90;99.90;;;;;;5041454;28;20535;-63
2021/10/31 12:27:45;;;;;;;18.30;17.50;;;19.80;99.90;;;;;;5074452;22;20529;-64
2021/10/31 12:30:44;;;;;;;18.10;17.40;;;19.70;99.90;;;;;;5022962;28;20480;-64
2021/10/31 12:33:15;;;;;;;18.17;17.47;;;19.80;99.90;;;;;;5003263;28;20499;-64
2021/10/31 12:35:44;;;;;;;20.53;19.50;;;19.70;99.90;;;;;;5042141;28;20447;-65
2021/10/31 12:38:33;;;;;;;18.50;17.80;;;19.80;99.90;;;;;;5040955;28;20475;-64
2021/10/31 12:41:22;;;;;;;17.93;17.23;;;19.80;99.90;;;;;;5042715;28;20960;-64
2021/10/31 12:43:52;;;;;;;17.80;17.10;;;19.60;99.90;;;;;;4989423;28;20461;-64